Time;durP1;ratioP1;P1;durP2;ratioP2;P2;SDS_P1;SDS_P2;PMS_P1;PMS_P2;Temp;Humidity;BMP_temperature;BMP_pressure;BME280_temperature;BME280_humidity;BME280_pressure;Samples;Min_cycle;Max_cycle;Signal;HPM_P1;HPM_P2
2023/02/04 00:01:18;;;;;;;22.27;3.83;;;;;;;7.97;100.00;103215.00;2614956;36;20613;-55
2023/02/04 00:03:49;;;;;;;22.85;2.65;;;;;;;7.93;100.00;103199.94;2614693;36;20065;-56
2023/02/04 00:06:17;;;;;;;26.50;3.53;;;;;;;7.97;100.00;103199.75;2614290;36;20062;-52
2023/02/04 00:08:46;;;;;;;19.57;3.70;;;;;;;8.01;100.00;103193.34;2615210;36;20038;-54
2023/02/04 00:11:14;;;;;;;23.73;3.75;;;;;;;8.16;100.00;103197.22;2615590;36;20299;-53
2023/02/04 00:13:42;;;;;;;27.38;4.05;;;;;;;8.01;100.00;103197.81;2614386;36;20042;-52
2023/02/04 00:16:11;;;;;;;18.83;3.22;;;;;;;7.99;100.00;103199.69;2615322;36;20495;-55
2023/02/04 00:18:39;;;;;;;22.85;2.83;;;;;;;8.02;100.00;103197.78;2614592;36;20034;-57
2023/02/04 00:21:12;;;;;;;21.52;2.95;;;;;;;8.09;100.00;103205.56;2614879;36;20034;-52
2023/02/04 00:23:41;;;;;;;19.73;3.42;;;;;;;8.18;100.00;103208.72;2615041;36;20046;-55
2023/02/04 00:26:09;;;;;;;22.67;3.38;;;;;;;8.04;100.00;103208.44;2615033;31;20034;-54
2023/02/04 00:28:37;;;;;;;17.80;3.10;;;;;;;8.00;100.00;103221.09;2615515;36;20609;-50
2023/02/04 00:31:06;;;;;;;21.73;2.95;;;;;;;8.12;100.00;103217.03;2615245;36;20033;-50
2023/02/04 00:33:34;;;;;;;18.27;3.38;;;;;;;8.15;100.00;103224.09;2614848;36;20034;-54
2023/02/04 00:36:03;;;;;;;15.20;3.08;;;;;;;8.12;100.00;103219.72;2614559;36;20037;-57
2023/02/04 00:38:34;;;;;;;19.80;3.30;;;;;;;8.06;100.00;103215.47;2614501;36;20057;-53
2023/02/04 00:41:02;;;;;;;23.83;3.53;;;;;;;8.03;100.00;103214.72;2614540;36;20039;-56
2023/02/04 00:43:30;;;;;;;18.98;3.05;;;;;;;8.04;100.00;103216.50;2615297;31;20034;-55
2023/02/04 00:45:58;;;;;;;24.35;3.47;;;;;;;8.05;100.00;103212.84;2615198;36;20461;-51
2023/02/04 00:48:27;;;;;;;23.83;3.35;;;;;;;8.05;100.00;103221.78;2614962;36;20039;-53
2023/02/04 00:50:55;;;;;;;17.05;2.53;;;;;;;8.03;100.00;103229.00;2614855;36;20045;-51
2023/02/04 00:53:23;;;;;;;16.77;2.50;;;;;;;7.99;100.00;103222.00;2614711;36;20046;-54
2023/02/04 00:55:54;;;;;;;19.00;3.08;;;;;;;7.98;100.00;103224.75;2615233;36;20315;-49
2023/02/04 00:58:23;;;;;;;21.67;3.55;;;;;;;7.92;100.00;103223.22;2615009;36;20106;-53
2023/02/04 01:00:51;;;;;;;26.17;3.85;;;;;;;7.97;100.00;103231.94;2614363;36;20046;-56
2023/02/04 01:03:21;;;;;;;20.58;3.28;;;;;;;7.85;100.00;103224.38;2614788;36;20540;-52
2023/02/04 01:05:49;;;;;;;12.98;2.40;;;;;;;7.82;100.00;103230.75;2614992;36;20527;-52
2023/02/04 01:08:18;;;;;;;13.20;3.00;;;;;;;7.78;100.00;103233.59;2616122;31;20111;-54
2023/02/04 01:10:46;;;;;;;14.23;3.15;;;;;;;7.75;100.00;103231.91;2614944;36;20034;-52
2023/02/04 01:13:17;;;;;;;19.33;3.38;;;;;;;7.71;100.00;103241.88;2614591;36;20038;-51
2023/02/04 01:15:45;;;;;;;20.33;3.88;;;;;;;7.62;100.00;103244.91;2614439;36;20562;-53
2023/02/04 01:18:14;;;;;;;22.35;4.47;;;;;;;7.63;100.00;103246.66;2614119;36;20044;-56
2023/02/04 01:20:43;;;;;;;16.83;3.40;;;;;;;7.60;100.00;103246.78;2614127;36;20034;-51
2023/02/04 01:23:11;;;;;;;20.33;3.50;;;;;;;7.51;100.00;103257.84;2614156;36;20042;-55
2023/02/04 01:25:42;;;;;;;20.90;2.78;;;;;;;7.60;100.00;103259.31;2613688;31;20038;-52
2023/02/04 01:28:18;;;;;;;25.90;3.85;;;;;;;7.64;100.00;103267.16;2613571;36;20061;-51
2023/02/04 01:30:49;;;;;;;21.55;3.78;;;;;;;7.62;100.00;103260.97;2613823;36;20038;-53
2023/02/04 01:33:17;;;;;;;29.33;3.97;;;;;;;7.71;100.00;103262.44;2615154;36;20034;-51
2023/02/04 01:35:51;;;;;;;25.48;2.53;;;;;;;7.60;100.00;103262.84;2613750;54;20045;-52
2023/02/04 01:38:20;;;;;;;21.88;3.58;;;;;;;7.70;100.00;103272.28;2614360;31;20045;-53
2023/02/04 01:40:49;;;;;;;21.83;3.33;;;;;;;7.81;100.00;103279.06;2613612;36;20034;-54
2023/02/04 01:43:17;;;;;;;18.05;3.55;;;;;;;7.69;100.00;103289.31;2614530;31;20029;-57
2023/02/04 01:45:48;;;;;;;20.50;3.23;;;;;;;7.66;100.00;103286.75;2614356;36;20707;-51
2023/02/04 01:48:19;;;;;;;23.17;3.40;;;;;;;7.77;100.00;103289.00;2613637;36;20042;-52
2023/02/04 01:50:48;;;;;;;24.20;3.65;;;;;;;7.74;100.00;103288.25;2613861;36;20034;-49
2023/02/04 01:53:19;;;;;;;17.33;3.05;;;;;;;7.71;100.00;103295.50;2613855;36;20042;-54
2023/02/04 01:55:48;;;;;;;17.25;2.88;;;;;;;7.72;100.00;103291.88;2613544;31;20046;-55
2023/02/04 01:58:16;;;;;;;15.70;3.17;;;;;;;7.62;100.00;103292.28;2613714;31;20438;-55
2023/02/04 02:00:45;;;;;;;25.80;3.35;;;;;;;7.84;100.00;103305.75;2614516;36;20034;-51
2023/02/04 02:03:16;;;;;;;23.45;3.90;;;;;;;7.74;100.00;103307.88;2614988;36;20035;-54
2023/02/04 02:05:46;;;;;;;26.05;3.42;;;;;;;7.77;100.00;103307.78;2614519;36;20041;-53
2023/02/04 02:08:16;;;;;;;22.30;4.82;;;;;;;7.65;100.00;103309.09;2614220;36;20030;-54
2023/02/04 02:10:48;;;;;;;24.17;2.90;;;;;;;7.61;100.00;103309.28;2614970;36;20129;-55
2023/02/04 02:13:20;;;;;;;19.73;3.50;;;;;;;7.57;100.00;103305.84;2613719;31;20034;-50
2023/02/04 02:15:49;;;;;;;20.15;3.55;;;;;;;7.64;100.00;103315.41;2614918;31;20045;-55
2023/02/04 02:18:24;;;;;;;20.15;3.22;;;;;;;7.70;100.00;103314.31;2614404;36;20110;-53
2023/02/04 02:20:52;;;;;;;35.63;3.95;;;;;;;7.56;100.00;103314.81;2613084;36;20073;-52
2023/02/04 02:23:25;;;;;;;18.95;3.83;;;;;;;7.65;100.00;103310.91;2614455;36;20045;-50
2023/02/04 02:25:56;;;;;;;21.95;3.63;;;;;;;7.67;100.00;103315.31;2613829;36;20034;-52
2023/02/04 02:28:24;;;;;;;24.33;3.13;;;;;;;7.59;100.00;103312.03;2614269;36;20042;-51
2023/02/04 02:30:53;;;;;;;20.10;2.60;;;;;;;7.62;100.00;103314.59;2615810;31;20042;-52
2023/02/04 02:33:25;;;;;;;21.73;3.38;;;;;;;7.48;100.00;103314.19;2615855;36;20039;-53
2023/02/04 02:35:53;;;;;;;23.15;3.50;;;;;;;7.47;100.00;103317.84;2615879;36;20045;-53
2023/02/04 02:38:22;;;;;;;32.33;3.20;;;;;;;7.32;100.00;103317.44;2615673;31;20581;-56
2023/02/04 02:40:52;;;;;;;19.23;3.35;;;;;;;7.26;100.00;103315.00;2612328;31;20539;-54
2023/02/04 02:43:26;;;;;;;28.90;4.03;;;;;;;7.22;100.00;103318.69;2614925;36;20034;-54
2023/02/04 02:45:56;;;;;;;25.00;3.95;;;;;;;7.23;100.00;103317.78;2614956;36;20085;-55
2023/02/04 02:48:25;;;;;;;17.95;3.35;;;;;;;7.11;100.00;103312.81;2614592;36;20042;-54
2023/02/04 02:50:53;;;;;;;26.48;4.53;;;;;;;6.97;100.00;103314.19;2614130;36;20038;-53
2023/02/04 02:53:23;;;;;;;25.23;3.73;;;;;;;6.88;100.00;103330.56;2613925;36;20034;-54
2023/02/04 02:55:51;;;;;;;;;;;;;;;6.89;100.00;103324.28;2614104;36;20034;-53
2023/02/04 02:58:31;;;;;;;25.35;3.90;;;;;;;6.97;100.00;103327.56;2614843;36;19950;-54
2023/02/04 03:01:00;;;;;;;27.45;3.47;;;;;;;7.00;100.00;103327.47;2614756;36;20026;-55
2023/02/04 03:03:31;;;;;;;19.35;3.08;;;;;;;6.98;100.00;103328.47;2614904;36;20034;-57
2023/02/04 03:06:03;;;;;;;24.00;2.95;;;;;;;6.89;100.00;103337.69;2615642;36;20594;-55
2023/02/04 03:08:35;;;;;;;22.65;3.25;;;;;;;6.75;100.00;103339.94;2614526;36;20065;-54
2023/02/04 03:11:03;;;;;;;15.88;2.70;;;;;;;6.82;100.00;103341.47;2613242;36;20042;-54
2023/02/04 03:13:35;;;;;;;25.45;3.95;;;;;;;6.86;100.00;103343.13;2615606;36;20054;-56
2023/02/04 03:16:06;;;;;;;21.15;3.08;;;;;;;6.80;100.00;103346.00;2613401;36;20035;-54
2023/02/04 03:18:36;;;;;;;21.33;3.40;;;;;;;6.72;100.00;103351.59;2613512;36;20046;-55
2023/02/04 03:21:07;;;;;;;15.45;2.75;;;;;;;6.70;100.00;103345.44;2615333;36;20042;-54
2023/02/04 03:23:37;;;;;;;23.42;2.88;;;;;;;6.64;100.00;103338.47;2614796;36;20134;-56
2023/02/04 03:26:06;;;;;;;24.05;4.15;;;;;;;6.58;100.00;103340.47;2615134;36;20049;-55
2023/02/04 03:28:41;;;;;;;17.58;3.10;;;;;;;6.54;100.00;103347.72;2616261;31;20073;-54
2023/02/04 03:31:10;;;;;;;17.33;3.22;;;;;;;6.48;100.00;103342.56;2614310;36;20039;-51
2023/02/04 03:33:38;;;;;;;29.45;4.22;;;;;;;6.44;100.00;103346.25;2614700;36;20431;-56
2023/02/04 03:36:07;;;;;;;22.85;3.72;;;;;;;6.51;100.00;103342.47;2615927;31;20101;-52
2023/02/04 03:38:36;;;;;;;19.63;3.13;;;;;;;6.45;100.00;103353.38;2613104;36;20201;-52
2023/02/04 03:41:04;;;;;;;15.53;2.60;;;;;;;6.35;100.00;103351.91;2615453;36;20064;-51
2023/02/04 03:43:32;;;;;;;17.03;3.80;;;;;;;6.29;100.00;103359.19;2614392;31;20039;-56
2023/02/04 03:46:03;;;;;;;23.60;4.10;;;;;;;6.26;100.00;103363.75;2614939;36;20038;-52
2023/02/04 03:50:48;;;;;;;25.65;3.97;;;;;;;6.08;100.00;103359.81;2617686;36;20361;-55
2023/02/04 03:53:16;;;;;;;23.63;3.65;;;;;;;6.15;100.00;103361.38;2617556;36;20435;-53
2023/02/04 03:55:45;;;;;;;21.48;2.90;;;;;;;6.21;100.00;103350.50;2617480;36;20042;-55
2023/02/04 03:58:13;;;;;;;18.95;3.40;;;;;;;6.37;100.00;103363.41;2617362;36;20169;-54
2023/02/04 04:00:41;;;;;;;15.32;2.95;;;;;;;6.31;100.00;103362.66;2618963;36;20045;-55
2023/02/04 04:03:10;;;;;;;21.90;3.20;;;;;;;6.34;100.00;103366.19;2618971;31;20450;-54
2023/02/04 04:05:38;;;;;;;18.50;3.53;;;;;;;6.26;100.00;103369.97;2616812;36;20034;-54
2023/02/04 04:08:09;;;;;;;23.83;3.85;;;;;;;6.18;100.00;103377.34;2617110;36;20038;-57
2023/02/04 04:10:37;;;;;;;21.65;3.08;;;;;;;6.20;100.00;103383.53;2619278;36;20046;-55
2023/02/04 04:13:06;;;;;;;20.30;2.90;;;;;;;6.12;100.00;103380.19;2618838;36;20041;-52
2023/02/04 04:15:34;;;;;;;20.63;3.42;;;;;;;6.02;100.00;103373.34;2619215;36;20038;-54
2023/02/04 04:18:03;;;;;;;22.27;3.15;;;;;;;5.93;100.00;103372.69;2618693;36;20030;-53
2023/02/04 04:20:31;;;;;;;14.77;2.53;;;;;;;5.88;100.00;103385.28;2618166;36;20038;-52
2023/02/04 04:23:00;;;;;;;14.15;3.38;;;;;;;5.99;100.00;103374.31;2619121;36;20506;-53
2023/02/04 04:25:30;;;;;;;20.40;3.90;;;;;;;5.94;100.00;103370.88;2618051;36;20061;-47
2023/02/04 04:27:59;;;;;;;18.92;3.05;;;;;;;5.99;100.00;103377.00;2619629;36;20101;-51
2023/02/04 04:30:27;;;;;;;31.52;3.90;;;;;;;6.10;100.00;103379.38;2617581;31;20037;-56
2023/02/04 04:32:55;;;;;;;16.83;3.33;;;;;;;6.06;100.00;103377.69;2619133;31;20042;-52
2023/02/04 04:35:24;;;;;;;29.35;3.50;;;;;;;6.12;100.00;103380.19;2618839;36;20030;-54
2023/02/04 04:37:52;;;;;;;18.40;3.95;;;;;;;6.11;100.00;103386.44;2619266;36;20045;-51
2023/02/04 04:40:20;;;;;;;23.45;4.10;;;;;;;6.10;100.00;103385.59;2617722;36;20034;-52
2023/02/04 04:42:51;;;;;;;19.92;2.72;;;;;;;6.10;100.00;103385.59;2618429;36;20038;-51
2023/02/04 04:45:20;;;;;;;14.57;3.83;;;;;;;6.21;100.00;103384.41;2618830;36;20038;-55
2023/02/04 04:47:49;;;;;;;19.45;4.00;;;;;;;6.25;100.00;103394.09;2618033;36;20026;-57
2023/02/04 04:50:18;;;;;;;14.82;3.30;;;;;;;6.29;100.00;103398.44;2617692;36;20582;-52
2023/02/04 04:52:46;;;;;;;13.25;3.10;;;;;;;6.41;100.00;103395.38;2620045;36;20458;-54
2023/02/04 04:55:14;;;;;;;20.17;3.10;;;;;;;6.46;100.00;103397.91;2618673;36;20042;-54
2023/02/04 04:57:43;;;;;;;18.20;3.03;;;;;;;6.52;100.00;103396.84;2619040;36;20026;-48
2023/02/04 05:00:17;;;;;;;15.60;2.65;;;;;;;6.61;100.00;103394.78;2618148;36;20375;-53
2023/02/04 05:02:46;;;;;;;17.75;2.88;;;;;;;6.62;100.00;103392.97;2615394;36;20038;-50
2023/02/04 05:05:15;;;;;;;11.90;2.70;;;;;;;6.63;100.00;103405.44;2615154;36;20046;-53
2023/02/04 05:07:43;;;;;;;14.07;2.58;;;;;;;6.59;100.00;103396.59;2614663;36;20053;-50
2023/02/04 05:10:12;;;;;;;14.10;3.03;;;;;;;6.61;100.00;103393.88;2615710;36;20045;-53
2023/02/04 05:12:40;;;;;;;15.15;2.97;;;;;;;6.71;100.00;103397.16;2614552;36;20577;-53
2023/02/04 05:15:09;;;;;;;20.08;3.10;;;;;;;6.70;100.00;103404.31;2615986;36;20447;-54
2023/02/04 05:17:40;;;;;;;16.63;2.20;;;;;;;6.73;100.00;103406.00;2615191;36;20035;-55
2023/02/04 05:20:10;;;;;;;13.82;3.35;;;;;;;6.68;100.00;103405.28;2614188;36;20038;-53
2023/02/04 05:22:38;;;;;;;21.73;2.80;;;;;;;6.72;100.00;103402.47;2614861;36;20658;-54
2023/02/04 05:25:08;;;;;;;18.05;3.30;;;;;;;6.79;100.00;103401.34;2614827;36;20550;-52
2023/02/04 05:27:36;;;;;;;24.73;3.10;;;;;;;6.77;100.00;103413.00;2616090;36;20050;-54
2023/02/04 05:30:04;;;;;;;15.45;4.15;;;;;;;6.70;100.00;103408.78;2614153;36;20035;-56
2023/02/04 05:32:33;;;;;;;16.27;3.42;;;;;;;6.68;100.00;103405.28;2615547;31;20045;-50
2023/02/04 05:35:03;;;;;;;30.35;3.35;;;;;;;6.63;100.00;103411.66;2614578;31;20038;-57
2023/02/04 05:37:32;;;;;;;14.45;2.58;;;;;;;6.61;100.00;103413.50;2615069;36;20041;-52
2023/02/04 05:40:00;;;;;;;16.13;3.10;;;;;;;6.63;100.00;103417.00;2614254;36;20038;-55
2023/02/04 05:42:29;;;;;;;16.30;3.17;;;;;;;6.60;100.00;103410.88;2614309;36;20073;-51
2023/02/04 05:44:57;;;;;;;17.27;3.95;;;;;;;6.56;100.00;103409.22;2614901;36;20042;-57
2023/02/04 05:47:26;;;;;;;17.90;2.80;;;;;;;6.60;100.00;103406.38;2615604;36;20038;-55
2023/02/04 05:49:54;;;;;;;13.10;2.47;;;;;;;6.66;100.00;103408.00;2614579;36;20042;-52
2023/02/04 05:52:25;;;;;;;16.25;3.00;;;;;;;6.59;100.00;103407.31;2614836;36;20053;-51
2023/02/04 05:54:53;;;;;;;15.38;2.47;;;;;;;6.61;100.00;103402.81;2614914;36;20038;-54
2023/02/04 05:57:22;;;;;;;11.38;2.28;;;;;;;6.53;100.00;103410.19;2615462;36;20034;-55
2023/02/04 05:59:50;;;;;;;13.38;2.40;;;;;;;6.55;100.00;103412.81;2614244;36;20045;-54
2023/02/04 06:02:18;;;;;;;15.00;3.88;;;;;;;6.56;100.00;103415.44;2615203;31;20454;-51
2023/02/04 06:04:47;;;;;;;17.80;2.75;;;;;;;6.54;100.00;103419.97;2614101;36;20038;-55
2023/02/04 06:07:15;;;;;;;14.63;3.08;;;;;;;6.53;100.00;103422.69;2613647;36;20031;-55
2023/02/04 06:09:46;;;;;;;18.15;2.40;;;;;;;6.56;100.00;103420.78;2614174;36;20038;-51
2023/02/04 06:12:15;;;;;;;22.38;2.92;;;;;;;6.63;100.00;103422.34;2612525;36;20038;-53
2023/02/04 06:14:43;;;;;;;19.45;3.55;;;;;;;6.64;100.00;103429.47;2615403;36;20030;-49
2023/02/04 06:17:11;;;;;;;22.80;3.67;;;;;;;6.67;100.00;103439.22;2614513;36;20050;-51
2023/02/04 06:19:40;;;;;;;19.52;2.88;;;;;;;6.58;100.00;103443.03;2615328;36;20042;-53
2023/02/04 06:22:08;;;;;;;14.95;3.05;;;;;;;6.66;100.00;103438.31;2614891;36;20042;-51
2023/02/04 06:24:36;;;;;;;17.50;2.67;;;;;;;6.65;100.00;103447.28;2614347;36;20026;-54
2023/02/04 06:27:07;;;;;;;10.30;2.42;;;;;;;6.70;100.00;103446.25;2616316;36;20435;-54
2023/02/04 06:29:35;;;;;;;17.75;2.58;;;;;;;6.69;100.00;103452.53;2613147;36;20045;-50
2023/02/04 06:32:04;;;;;;;15.27;2.90;;;;;;;6.68;100.00;103464.16;2614570;36;20454;-53
2023/02/04 06:34:32;;;;;;;18.08;3.40;;;;;;;6.71;100.00;103469.41;2614911;36;20443;-51
2023/02/04 06:37:00;;;;;;;8.57;2.78;;;;;;;6.71;100.00;103472.09;2614975;31;20038;-55
2023/02/04 06:39:29;;;;;;;17.70;3.33;;;;;;;6.68;100.00;103467.69;2612342;31;20038;-55
2023/02/04 06:41:57;;;;;;;18.58;3.20;;;;;;;6.73;100.00;103471.13;2615658;36;20041;-53
2023/02/04 06:44:28;;;;;;;14.13;2.50;;;;;;;6.71;100.00;103474.75;2615077;36;20052;-56
2023/02/04 06:46:56;;;;;;;19.88;3.42;;;;;;;6.80;100.00;103467.34;2615571;36;20030;-56
2023/02/04 06:49:25;;;;;;;14.98;3.00;;;;;;;6.88;100.00;103468.91;2614567;36;20042;-52
2023/02/04 06:51:54;;;;;;;21.58;3.83;;;;;;;6.93;100.00;103478.53;2613862;31;20031;-54
2023/02/04 06:54:23;;;;;;;16.48;3.50;;;;;;;6.98;100.00;103479.28;2614708;36;20089;-54
2023/02/04 06:56:51;;;;;;;20.60;3.45;;;;;;;6.97;100.00;103492.72;2614677;36;20031;-53
2023/02/04 06:59:19;;;;;;;19.17;3.27;;;;;;;6.95;100.00;103497.22;2614909;31;20057;-50
2023/02/04 07:01:50;;;;;;;12.77;2.80;;;;;;;6.93;100.00;103489.22;2614706;36;20045;-55
2023/02/04 07:04:19;;;;;;;19.10;3.35;;;;;;;6.93;100.00;103499.09;2613766;36;20049;-55
2023/02/04 07:06:47;;;;;;;16.02;3.75;;;;;;;6.96;100.00;103510.59;2613712;36;20031;-52
2023/02/04 07:09:15;;;;;;;17.95;2.92;;;;;;;6.94;100.00;103507.06;2613952;36;20035;-51
2023/02/04 07:11:44;;;;;;;14.80;2.85;;;;;;;6.95;100.00;103502.56;2612564;36;20057;-53
2023/02/04 07:14:12;;;;;;;19.33;3.00;;;;;;;6.92;100.00;103503.56;2613258;31;20029;-51
2023/02/04 07:16:40;;;;;;;15.02;3.08;;;;;;;7.03;100.00;103507.72;2614287;36;20551;-55
2023/02/04 07:19:11;;;;;;;20.50;3.88;;;;;;;7.16;100.00;103501.03;2613745;36;20385;-49
2023/02/04 07:21:39;;;;;;;13.70;2.80;;;;;;;7.13;100.00;103502.00;2615953;31;20042;-55
2023/02/04 07:24:08;;;;;;;18.38;2.83;;;;;;;7.19;100.00;103506.31;2614147;36;20035;-52
2023/02/04 07:26:36;;;;;;;14.73;2.95;;;;;;;7.23;100.00;103509.75;2614905;36;21062;-53
2023/02/04 07:29:05;;;;;;;13.32;3.70;;;;;;;7.19;100.00;103514.34;2614797;36;20501;-57
2023/02/04 07:31:33;;;;;;;17.02;2.95;;;;;;;7.26;100.00;103521.25;2612320;36;20046;-54
2023/02/04 07:34:01;;;;;;;11.60;2.80;;;;;;;7.33;100.00;103528.19;2614803;36;20027;-55
2023/02/04 07:36:32;;;;;;;23.20;3.65;;;;;;;7.48;100.00;103536.63;2614628;36;20041;-56
2023/02/04 07:39:00;;;;;;;19.58;3.80;;;;;;;7.49;100.00;103541.06;2613897;36;20037;-54
2023/02/04 07:41:29;;;;;;;23.30;4.18;;;;;;;7.35;100.00;103547.75;2614548;36;20038;-57
2023/02/04 07:43:57;;;;;;;25.42;4.13;;;;;;;7.33;100.00;103551.41;2613898;36;20041;-52
2023/02/04 07:46:26;;;;;;;22.98;4.40;;;;;;;7.28;100.00;103559.59;2614717;36;20027;-49
2023/02/04 07:48:54;;;;;;;19.53;4.77;;;;;;;7.53;100.00;103564.16;2614000;36;20042;-55
2023/02/04 07:51:22;;;;;;;21.70;3.88;;;;;;;7.53;100.00;103559.66;2615192;31;20808;-51
2023/02/04 07:53:53;;;;;;;18.27;4.10;;;;;;;7.59;100.00;103568.44;2614258;36;20035;-54
2023/02/04 07:56:22;;;;;;;15.77;3.58;;;;;;;7.51;100.00;103571.38;2613559;36;20550;-51
2023/02/04 07:58:50;;;;;;;18.33;3.42;;;;;;;7.61;100.00;103577.31;2615211;36;20038;-55
2023/02/04 08:01:19;;;;;;;18.23;3.97;;;;;;;7.62;100.00;103579.06;2613861;36;20045;-53
2023/02/04 08:03:47;;;;;;;16.67;4.10;;;;;;;7.68;100.00;103585.09;2614448;36;20035;-51
2023/02/04 08:06:16;;;;;;;24.30;3.83;;;;;;;7.71;100.00;103579.66;2614397;36;20303;-52
2023/02/04 08:08:44;;;;;;;16.58;4.43;;;;;;;7.60;100.00;103579.13;2614881;36;20030;-53
2023/02/04 08:11:15;;;;;;;18.38;3.63;;;;;;;7.78;100.00;103579.44;2614274;36;20041;-57
2023/02/04 08:13:43;;;;;;;25.20;4.32;;;;;;;7.77;100.00;103583.91;2613969;36;20049;-51
2023/02/04 08:16:11;;;;;;;26.35;4.40;;;;;;;7.83;100.00;103582.84;2614067;36;20528;-52
2023/02/04 08:18:40;;;;;;;16.17;3.55;;;;;;;7.92;100.00;103576.28;2613957;36;20057;-53
2023/02/04 08:21:08;;;;;;;23.58;3.80;;;;;;;7.79;100.00;103589.22;2615567;36;20470;-54
2023/02/04 08:23:40;;;;;;;16.15;3.53;;;;;;;7.81;100.00;103592.75;2614204;36;20034;-54
2023/02/04 08:26:09;;;;;;;19.67;4.55;;;;;;;7.67;100.00;103588.72;2614058;36;20142;-52
2023/02/04 08:28:40;;;;;;;21.60;5.32;;;;;;;7.67;100.00;103590.50;2614458;36;20034;-51
2023/02/04 08:31:10;;;;;;;22.77;3.08;;;;;;;7.71;100.00;103593.06;2613880;36;20793;-56
2023/02/04 08:33:39;;;;;;;17.92;4.13;;;;;;;7.84;100.00;103592.66;2613365;36;20586;-56
2023/02/04 08:36:09;;;;;;;25.50;4.13;;;;;;;7.63;100.00;103592.44;2614026;36;20146;-52
2023/02/04 08:38:39;;;;;;;23.88;4.55;;;;;;;7.69;100.00;103597.59;2614812;36;20039;-53
2023/02/04 08:41:07;;;;;;;23.63;5.10;;;;;;;7.95;100.00;103614.63;2614317;36;20555;-55
2023/02/04 08:43:35;;;;;;;18.00;4.07;;;;;;;8.10;100.00;103617.69;2614467;36;20031;-54
2023/02/04 08:46:07;;;;;;;19.33;5.15;;;;;;;8.01;100.00;103611.75;2616061;31;20455;-53
2023/02/04 08:48:35;;;;;;;25.63;4.57;;;;;;;7.79;100.00;103616.94;2614443;36;20038;-54
2023/02/04 08:51:03;;;;;;;20.50;4.17;;;;;;;7.98;100.00;103617.22;2614962;36;20034;-55
2023/02/04 08:53:32;;;;;;;17.58;3.80;;;;;;;7.91;100.00;103612.09;2615309;36;20443;-53
2023/02/04 08:56:00;;;;;;;25.85;4.13;;;;;;;8.20;100.00;103622.72;2615228;31;20539;-57
2023/02/04 08:58:29;;;;;;;22.67;3.28;;;;;;;8.37;100.00;103616.75;2615263;36;20251;-53
2023/02/04 09:00:57;;;;;;;15.52;4.18;;;;;;;8.55;100.00;103628.72;2614924;36;20034;-54
2023/02/04 09:03:28;;;;;;;15.07;3.13;;;;;;;8.64;100.00;103623.91;2613160;36;20039;-51
2023/02/04 09:05:56;;;;;;;23.40;4.47;;;;;;;8.70;100.00;103621.91;2614500;36;20058;-54
2023/02/04 09:08:25;;;;;;;20.27;3.92;;;;;;;8.59;100.00;103621.41;2615355;36;20046;-53
2023/02/04 09:10:53;;;;;;;20.92;3.90;;;;;;;8.62;100.00;103621.28;2615226;36;20037;-54
2023/02/04 09:13:21;;;;;;;19.88;3.80;;;;;;;8.60;100.00;103620.47;2616658;36;20030;-55
2023/02/04 09:15:51;;;;;;;28.25;4.40;;;;;;;8.65;100.00;103620.31;2615918;36;20034;-54
2023/02/04 09:18:21;;;;;;;28.08;3.90;;;;;;;8.58;100.00;103625.00;2615906;36;20382;-55
2023/02/04 09:20:53;;;;;;;20.35;3.70;;;;;;;8.66;100.00;103625.63;2616285;36;20034;-55
2023/02/04 09:23:22;;;;;;;22.35;3.47;;;;;;;8.39;100.00;103628.34;2616133;36;20049;-55
2023/02/04 09:25:51;;;;;;;21.45;3.92;;;;;;;8.50;100.00;103625.28;2616720;36;20030;-55
2023/02/04 09:28:19;;;;;;;16.85;3.72;;;;;;;8.61;100.00;103629.41;2615211;36;20570;-54
2023/02/04 09:30:48;;;;;;;16.23;3.87;;;;;;;8.73;100.00;103626.25;2616201;36;20035;-56
2023/02/04 09:33:18;;;;;;;23.23;4.22;;;;;;;8.82;100.00;103625.06;2615425;36;20038;-50
2023/02/04 09:35:46;;;;;;;21.60;5.45;;;;;;;8.94;100.00;103633.53;2616095;31;20130;-57
2023/02/04 09:38:17;;;;;;;19.52;4.22;;;;;;;8.93;100.00;103628.22;2616116;36;20065;-57
2023/02/04 09:40:49;;;;;;;19.08;3.92;;;;;;;8.74;100.00;103631.56;2616348;36;20045;-53
2023/02/04 09:43:23;;;;;;;19.23;3.83;;;;;;;8.84;100.00;103633.94;2616530;36;20422;-51
2023/02/04 09:45:52;;;;;;;22.00;5.88;;;;;;;8.82;100.00;103639.38;2616468;36;20042;-54
2023/02/04 09:48:22;;;;;;;20.33;4.97;;;;;;;8.78;100.00;103637.72;2614469;36;20313;-55
2023/02/04 09:50:52;;;;;;;27.42;4.72;;;;;;;9.10;100.00;103639.22;2615929;36;20038;-52
2023/02/04 09:53:25;;;;;;;22.70;4.75;;;;;;;9.20;100.00;103644.22;2616631;31;20442;-54
2023/02/04 09:55:54;;;;;;;29.75;4.05;;;;;;;9.32;100.00;103638.41;2614429;36;20027;-53
2023/02/04 09:58:25;;;;;;;18.95;4.55;;;;;;;9.18;100.00;103652.34;2615188;36;20026;-52
2023/02/04 10:01:00;;;;;;;24.30;4.55;;;;;;;9.36;100.00;103641.84;2615322;36;20061;-55
2023/02/04 10:03:29;;;;;;;25.27;4.22;;;;;;;9.20;100.00;103652.28;2613763;36;20038;-54
2023/02/04 10:05:57;;;;;;;21.58;4.10;;;;;;;9.43;100.00;103654.09;2614416;36;20512;-52
2023/02/04 10:08:31;;;;;;;22.20;4.05;;;;;;;9.52;100.00;103652.88;2615570;36;20447;-55
2023/02/04 10:11:00;;;;;;;25.35;5.47;;;;;;;9.43;100.00;103651.41;2615853;31;20034;-48
2023/02/04 10:13:34;;;;;;;29.60;4.80;;;;;;;9.30;100.00;103651.00;2616581;36;20046;-54
2023/02/04 10:16:03;;;;;;;24.80;4.63;;;;;;;9.26;100.00;103655.63;2615959;36;20548;-56
2023/02/04 10:18:37;;;;;;;28.60;4.88;;;;;;;9.28;100.00;103660.97;2615411;36;20095;-53
2023/02/04 10:21:16;;;;;;;24.95;4.95;;;;;;;9.36;100.00;103656.13;2616289;36;20141;-52
2023/02/04 10:23:50;;;;;;;28.13;4.85;;;;;;;9.26;100.00;103665.50;2616660;36;20031;-55
2023/02/04 10:26:19;;;;;;;31.48;4.63;;;;;;;9.27;100.00;103668.13;2615945;36;20035;-54
2023/02/04 10:28:48;;;;;;;21.92;4.22;;;;;;;9.31;100.00;103671.59;2616687;36;20130;-55
2023/02/04 10:31:36;;;;;;;22.90;5.38;;;;;;;9.24;100.00;103667.38;2616401;36;20026;-52
2023/02/04 10:34:13;;;;;;;19.27;4.53;;;;;;;9.47;100.00;103658.44;2615556;36;20030;-55
2023/02/04 10:36:44;;;;;;;29.92;5.72;;;;;;;9.55;100.00;103668.88;2616029;36;20558;-57
2023/02/04 10:39:17;;;;;;;26.08;4.55;;;;;;;9.75;100.00;103668.97;2615801;36;20133;-54
2023/02/04 10:41:50;;;;;;;21.67;4.85;;;;;;;9.85;100.00;103676.66;2616093;36;20058;-55
2023/02/04 10:44:22;;;;;;;29.70;4.90;;;;;;;9.82;100.00;103666.91;2616839;36;20085;-58
2023/02/04 10:46:50;;;;;;;21.98;5.68;;;;;;;9.84;100.00;103667.72;2616386;31;20063;-54
2023/02/04 10:49:21;;;;;;;27.48;4.25;;;;;;;9.63;100.00;103666.78;2616156;36;20046;-54
2023/02/04 10:51:51;;;;;;;23.15;4.57;;;;;;;9.35;100.00;103661.56;2615698;36;20035;-53
2023/02/04 10:54:32;;;;;;;19.55;3.90;;;;;;;9.31;100.00;103674.28;2616228;36;20050;-52
2023/02/04 10:57:05;;;;;;;31.60;4.55;;;;;;;9.39;100.00;103672.19;2616016;36;20053;-53
2023/02/04 10:59:34;;;;;;;26.63;4.80;;;;;;;9.39;100.00;103665.91;2616692;36;20427;-56
2023/02/04 11:02:04;;;;;;;20.42;4.13;;;;;;;9.42;100.00;103680.13;2616048;36;20030;-52
2023/02/04 11:04:33;;;;;;;19.40;4.50;;;;;;;9.38;100.00;103666.84;2614908;36;20038;-55
2023/02/04 11:07:03;;;;;;;28.15;5.15;;;;;;;9.28;100.00;103677.09;2614112;36;20026;-57
2023/02/04 11:09:33;;;;;;;30.23;4.53;;;;;;;9.34;100.00;103684.91;2615059;36;20034;-51
2023/02/04 11:12:02;;;;;;;24.05;4.35;;;;;;;9.37;100.00;103676.72;2613794;36;20045;-53
2023/02/04 11:14:32;;;;;;;25.50;4.15;;;;;;;8.96;100.00;103679.16;2614306;36;20030;-51
2023/02/04 11:17:03;;;;;;;32.15;5.43;;;;;;;9.04;100.00;103679.75;2613978;36;20031;-54
2023/02/04 11:19:35;;;;;;;26.05;3.85;;;;;;;9.11;100.00;103677.69;2615438;36;20026;-54
2023/02/04 11:22:09;;;;;;;28.98;4.78;;;;;;;8.97;100.00;103682.72;2615939;36;20035;-54
2023/02/04 11:24:40;;;;;;;27.10;4.63;;;;;;;9.03;100.00;103674.44;2612552;36;20038;-53
2023/02/04 11:27:20;;;;;;;23.50;4.95;;;;;;;9.07;100.00;103671.56;2613151;36;20051;-52
2023/02/04 11:29:49;;;;;;;28.95;4.88;;;;;;;9.05;100.00;103677.94;2614870;36;20027;-52